Time;durP1;ratioP1;P1;durP2;ratioP2;P2;SDS_P1;SDS_P2;PMS_P1;PMS_P2;Temp;Humidity;BMP_temperature;BMP_pressure;BME280_temperature;BME280_humidity;BME280_pressure;Samples;Min_cycle;Max_cycle;Signal;HPM_P1;HPM_P2
2022/01/22 00:00:11;;;;;;;26.65;4.13;;;6.40;99.90;;;;;;5007798;28;20095;-88
2022/01/22 00:02:37;;;;;;;18.83;3.85;;;6.50;99.90;;;;;;5009104;28;20054;-88
2022/01/22 00:05:05;;;;;;;28.05;3.72;;;6.50;99.90;;;;;;5007615;28;20153;-88
2022/01/22 00:07:31;;;;;;;36.20;3.75;;;6.50;99.90;;;;;;5010496;28;20046;-88
2022/01/22 00:10:03;;;;;;;32.10;3.15;;;6.40;99.90;;;;;;5009160;28;20064;-88
2022/01/22 00:15:06;;;;;;;26.70;4.22;;;6.50;99.90;;;;;;5016386;28;20057;-88
2022/01/22 00:17:32;;;;;;;20.10;3.58;;;6.50;99.90;;;;;;5013472;28;20570;-88
2022/01/22 00:19:57;;;;;;;19.35;3.38;;;6.50;99.90;;;;;;5012288;28;20125;-87
2022/01/22 00:22:27;;;;;;;22.13;3.65;;;6.60;99.90;;;;;;4995316;28;20041;-86
2022/01/22 00:24:57;;;;;;;14.32;2.33;;;6.50;99.90;;;;;;5013906;28;20088;-88
2022/01/22 00:27:23;;;;;;;25.20;3.03;;;7.60;99.90;;;;;;5013634;28;20092;-88
2022/01/22 00:29:49;;;;;;;22.60;2.90;;;6.40;99.90;;;;;;5013749;28;20076;-87
2022/01/22 00:32:15;;;;;;;18.35;3.33;;;6.50;99.90;;;;;;5010893;28;20512;-87
2022/01/22 00:34:40;;;;;;;25.50;3.28;;;6.50;99.90;;;;;;5016334;28;20408;-88
2022/01/22 00:37:06;;;;;;;18.15;4.07;;;6.50;99.90;;;;;;5016895;28;20042;-88
2022/01/22 00:39:34;;;;;;;23.25;2.65;;;6.50;99.90;;;;;;5013087;28;20054;-88
2022/01/22 00:42:00;;;;;;;28.83;3.50;;;6.50;99.90;;;;;;5012063;28;20492;-88
2022/01/22 00:44:25;;;;;;;22.80;4.10;;;6.50;99.90;;;;;;4995726;28;20061;-88
2022/01/22 00:46:52;;;;;;;16.92;3.13;;;6.50;99.90;;;;;;5013343;28;20050;-89
2022/01/22 00:49:18;;;;;;;24.42;3.25;;;6.50;99.90;;;;;;5014601;28;20045;-88
2022/01/22 00:51:44;;;;;;;24.60;2.58;;;6.50;99.90;;;;;;5017977;28;20106;-88
2022/01/22 00:54:10;;;;;;;23.00;3.47;;;6.50;99.90;;;;;;4996990;28;20050;-88
2022/01/22 00:56:36;;;;;;;26.83;3.88;;;6.50;99.90;;;;;;5012780;28;20061;-88
2022/01/22 00:59:02;;;;;;;23.25;3.83;;;6.50;99.90;;;;;;4998080;28;20057;-89
2022/01/22 01:01:28;;;;;;;16.95;2.45;;;6.50;99.90;;;;;;5015662;28;20093;-88
2022/01/22 01:04:00;;;;;;;20.02;3.10;;;6.50;99.90;;;;;;5010539;28;20943;-89
2022/01/22 01:06:26;;;;;;;20.65;2.60;;;6.50;99.90;;;;;;5008811;28;20124;-88
2022/01/22 01:08:52;;;;;;;23.08;3.33;;;6.50;99.90;;;;;;5011745;28;20503;-87
2022/01/22 01:11:18;;;;;;;22.17;2.95;;;6.60;99.90;;;;;;5012860;28;20060;-88
2022/01/22 01:13:48;;;;;;;18.50;2.40;;;6.60;99.90;;;;;;5010909;28;20464;-88
2022/01/22 01:16:33;;;;;;;18.02;4.50;;;6.60;99.90;;;;;;5010073;28;20089;-88
2022/01/22 01:33:03;;;;;;;21.40;3.53;;;6.60;99.90;;;;;;5012778;28;20361;-88
2022/01/22 01:35:30;;;;;;;35.28;5.22;;;6.60;99.90;;;;;;5011224;28;20060;-87
2022/01/22 01:37:59;;;;;;;14.00;3.38;;;6.60;99.90;;;;;;5004392;28;20057;-87
2022/01/22 01:40:26;;;;;;;21.52;3.20;;;6.60;99.90;;;;;;4991912;28;20485;-88
2022/01/22 01:43:05;;;;;;;13.15;3.67;;;6.60;99.90;;;;;;4991986;28;20077;-88
2022/01/22 01:45:31;;;;;;;22.15;3.63;;;6.60;99.90;;;;;;4991408;28;20519;-88
2022/01/22 01:48:04;;;;;;;13.80;2.63;;;6.60;99.90;;;;;;4992293;28;20129;-89
2022/01/22 01:50:32;;;;;;;18.88;2.88;;;7.10;99.90;;;;;;4994362;28;20050;-89
2022/01/22 01:53:10;;;;;;;11.23;2.28;;;6.60;99.90;;;;;;4994169;28;20148;-89
2022/01/22 01:55:50;;;;;;;22.60;3.90;;;6.60;99.90;;;;;;4992115;28;20108;-90
2022/01/22 01:58:17;;;;;;;11.48;2.55;;;6.60;99.90;;;;;;4992750;28;20501;-89
2022/01/22 02:00:43;;;;;;;19.45;2.63;;;6.60;99.90;;;;;;4979213;28;20074;-88
2022/01/22 02:03:11;;;;;;;20.33;2.78;;;6.60;99.90;;;;;;4996788;28;20503;-88
2022/01/22 02:05:38;;;;;;;18.50;2.08;;;6.60;99.90;;;;;;4997934;28;20077;-88
2022/01/22 02:08:04;;;;;;;10.82;2.53;;;6.60;99.90;;;;;;4980337;28;20057;-87
2022/01/22 02:10:34;;;;;;;19.50;3.15;;;6.60;99.90;;;;;;4992873;28;20058;-87
2022/01/22 02:23:51;;;;;;;8.98;1.90;;;6.50;99.90;;;;;;4998418;28;20050;-86
2022/01/22 02:26:18;;;;;;;14.50;2.58;;;6.60;99.90;;;;;;4983012;28;20058;-86
2022/01/22 02:28:49;;;;;;;9.98;2.22;;;6.50;99.90;;;;;;4996895;28;20084;-86
2022/01/22 02:31:36;;;;;;;12.30;2.45;;;6.50;99.90;;;;;;4997768;28;20073;-86
2022/01/22 02:36:58;;;;;;;18.88;2.45;;;6.50;99.90;;;;;;4992879;28;20061;-85
2022/01/22 02:39:37;;;;;;;14.40;2.35;;;6.50;99.90;;;;;;4992854;28;20076;-86
2022/01/22 02:42:03;;;;;;;15.93;3.38;;;6.50;99.90;;;;;;4991814;28;20349;-86
2022/01/22 02:44:33;;;;;;;19.02;2.88;;;6.50;99.90;;;;;;4992752;28;20537;-85
2022/01/22 02:47:02;;;;;;;16.42;2.92;;;6.40;99.90;;;;;;4990567;28;20367;-85
2022/01/22 02:49:27;;;;;;;18.38;3.15;;;6.50;99.90;;;;;;4992093;28;20074;-85
2022/01/22 02:52:03;;;;;;;22.98;3.35;;;6.40;99.90;;;;;;4991043;28;20082;-86
2022/01/22 02:54:29;;;;;;;18.15;3.47;;;6.40;99.90;;;;;;4992013;28;20057;-86
2022/01/22 02:56:56;;;;;;;15.02;2.90;;;6.50;99.90;;;;;;4990906;28;20505;-86
2022/01/22 02:59:23;;;;;;;11.07;2.88;;;6.40;99.90;;;;;;4990033;28;20132;-87
2022/01/22 03:01:50;;;;;;;24.10;3.65;;;6.40;99.90;;;;;;4990277;28;20125;-85
2022/01/22 03:04:16;;;;;;;12.90;2.38;;;6.30;99.90;;;;;;4991598;28;20058;-86
2022/01/22 03:06:41;;;;;;;10.80;2.28;;;6.40;99.90;;;;;;4991823;28;20046;-86
2022/01/22 03:09:10;;;;;;;24.88;5.93;;;6.40;99.90;;;;;;4990636;28;20046;-86
2022/01/22 03:11:45;;;;;;;11.68;2.83;;;6.30;99.90;;;;;;4991459;28;20053;-85
2022/01/22 03:27:49;;;;;;;13.05;3.05;;;6.40;99.90;;;;;;4990573;28;20466;-87
2022/01/22 03:30:16;;;;;;;14.50;2.30;;;6.40;99.90;;;;;;4974464;28;20092;-87
2022/01/22 03:32:45;;;;;;;11.07;2.20;;;6.30;99.90;;;;;;4992192;28;20064;-87
2022/01/22 03:35:24;;;;;;;13.15;2.08;;;6.30;99.90;;;;;;4990627;28;20053;-87
2022/01/22 03:37:53;;;;;;;10.25;2.83;;;6.30;99.90;;;;;;4992990;28;20058;-87
2022/01/22 03:40:25;;;;;;;11.20;3.05;;;6.40;99.90;;;;;;4978004;28;20046;-87
2022/01/22 03:42:53;;;;;;;15.45;2.38;;;6.30;99.90;;;;;;4991835;28;20054;-87
2022/01/22 03:45:20;;;;;;;12.77;2.10;;;6.30;99.90;;;;;;4989585;28;20088;-87
2022/01/22 03:47:46;;;;;;;15.10;2.17;;;6.30;99.90;;;;;;4994805;28;20076;-88
2022/01/22 03:50:14;;;;;;;9.02;1.90;;;6.30;99.90;;;;;;4994424;28;20085;-87
2022/01/22 03:52:40;;;;;;;19.15;2.88;;;6.40;99.90;;;;;;4991432;28;20433;-88
2022/01/22 03:55:10;;;;;;;14.15;2.63;;;6.40;99.90;;;;;;4993339;28;20050;-88
2022/01/22 03:57:36;;;;;;;12.40;2.72;;;6.40;99.90;;;;;;4995296;28;20094;-87
2022/01/22 04:00:05;;;;;;;15.52;2.97;;;6.40;99.90;;;;;;4991947;28;20046;-88
2022/01/22 04:03:04;;;;;;;13.90;2.10;;;6.30;99.90;;;;;;4990849;28;20038;-87
2022/01/22 04:05:19;;;;;;;10.77;2.40;;;6.30;99.90;;;;;;4993403;28;20065;-87
2022/01/22 04:10:26;;;;;;;10.52;2.78;;;6.30;99.90;;;;;;4993600;28;20050;-87
2022/01/22 04:13:06;;;;;;;14.50;2.78;;;6.30;99.90;;;;;;4991103;28;20126;-87
2022/01/22 04:15:36;;;;;;;9.85;2.47;;;6.30;99.90;;;;;;4991287;28;20058;-87
2022/01/22 04:28:43;;;;;;;12.65;2.63;;;6.40;99.90;;;;;;4992397;28;20049;-86
2022/01/22 04:31:09;;;;;;;14.45;3.08;;;6.30;99.90;;;;;;4991755;28;20069;-87
2022/01/22 04:33:35;;;;;;;11.05;2.17;;;6.30;99.90;;;;;;4989180;28;20090;-86
2022/01/22 04:36:00;;;;;;;12.35;2.42;;;6.30;99.90;;;;;;4994889;28;20077;-87
2022/01/22 04:38:26;;;;;;;15.73;2.28;;;6.30;99.90;;;;;;4996072;28;20408;-87
2022/01/22 04:40:52;;;;;;;13.35;2.38;;;6.30;99.90;;;;;;4992611;28;20061;-87
2022/01/22 04:43:18;;;;;;;15.15;2.53;;;7.40;99.90;;;;;;4993195;28;20093;-87
2022/01/22 04:56:46;;;;;;;10.68;1.63;;;6.30;99.90;;;;;;4992683;28;20057;-86
2022/01/22 04:59:13;;;;;;;9.52;1.30;;;6.30;99.90;;;;;;4994265;28;20055;-87
2022/01/22 05:01:38;;;;;;;10.45;1.88;;;6.30;99.90;;;;;;4994110;28;20152;-87
2022/01/22 05:04:04;;;;;;;13.10;1.92;;;6.30;99.90;;;;;;4992897;28;20125;-86
2022/01/22 05:06:30;;;;;;;9.00;1.40;;;6.30;99.90;;;;;;4993725;28;20069;-87
2022/01/22 05:08:57;;;;;;;15.55;2.00;;;6.00;99.90;;;;;;4974465;28;20069;-87
2022/01/22 05:11:24;;;;;;;11.27;1.38;;;6.30;99.90;;;;;;4991451;28;20078;-86
2022/01/22 05:13:51;;;;;;;4.07;1.50;;;6.30;99.90;;;;;;4991547;28;20416;-86
2022/01/22 05:16:17;;;;;;;9.07;1.25;;;6.20;99.90;;;;;;4993573;28;20413;-87
2022/01/22 05:18:59;;;;;;;16.35;1.80;;;6.20;99.90;;;;;;4975839;28;20054;-87
2022/01/22 05:21:26;;;;;;;8.60;2.20;;;6.30;99.90;;;;;;4991929;28;20076;-86
2022/01/22 05:23:54;;;;;;;12.95;1.45;;;6.20;99.90;;;;;;4991425;28;20125;-86
2022/01/22 05:27:19;;;;;;;8.25;1.98;;;6.30;99.90;;;;;;4990711;28;20141;-86
2022/01/22 05:37:23;;;;;;;10.57;1.95;;;6.30;99.90;;;;;;4992513;28;20108;-87
2022/01/22 05:39:55;;;;;;;13.00;2.45;;;6.30;99.90;;;;;;4991724;28;20049;-86
2022/01/22 05:42:20;;;;;;;8.57;1.92;;;6.30;99.90;;;;;;4993310;28;20129;-87
2022/01/22 05:44:46;;;;;;;19.10;2.20;;;6.30;99.90;;;;;;4992338;28;20134;-87
2022/01/22 05:47:14;;;;;;;14.80;2.63;;;6.30;99.90;;;;;;4993402;28;20069;-87
2022/01/22 05:49:42;;;;;;;10.23;1.95;;;6.30;99.90;;;;;;4993605;28;20092;-86
2022/01/22 05:52:11;;;;;;;16.75;1.83;;;6.30;99.90;;;;;;4993608;28;20049;-87
2022/01/22 06:00:49;;;;;;;15.05;2.20;;;6.20;99.90;;;;;;4992863;28;20074;-87
2022/01/22 06:03:27;;;;;;;15.93;2.60;;;6.20;99.90;;;;;;4995503;28;20382;-87
2022/01/22 06:05:53;;;;;;;15.65;2.45;;;6.20;99.90;;;;;;4992030;28;20046;-87
2022/01/22 06:08:31;;;;;;;17.35;2.45;;;6.20;99.90;;;;;;4995232;28;20069;-87
2022/01/22 06:11:00;;;;;;;15.15;2.10;;;6.20;99.90;;;;;;4997749;28;20129;-88
2022/01/22 06:13:43;;;;;;;13.73;3.67;;;6.20;99.90;;;;;;4979190;28;20069;-87
2022/01/22 06:16:09;;;;;;;15.00;2.40;;;6.20;99.90;;;;;;4992672;28;20061;-88
2022/01/22 06:18:35;;;;;;;14.25;2.75;;;6.20;99.90;;;;;;4992305;28;20053;-88
2022/01/22 06:21:00;;;;;;;25.10;3.22;;;6.20;99.90;;;;;;4988385;28;20457;-87
2022/01/22 06:24:05;;;;;;;14.23;2.22;;;6.20;99.90;;;;;;4991060;28;20092;-87
2022/01/22 06:26:35;;;;;;;25.13;3.40;;;6.20;99.90;;;;;;4982721;28;20141;-88
2022/01/22 06:29:06;;;;;;;15.52;3.15;;;6.20;99.90;;;;;;4985903;28;20442;-88
2022/01/22 06:31:31;;;;;;;16.23;3.08;;;6.20;99.90;;;;;;4986182;28;20557;-87
2022/01/22 06:34:00;;;;;;;19.17;3.13;;;6.20;99.90;;;;;;4984593;28;20050;-88
2022/01/22 06:36:29;;;;;;;29.48;4.35;;;6.20;99.90;;;;;;4985090;28;20089;-87
2022/01/22 06:38:59;;;;;;;14.68;3.22;;;6.20;99.90;;;;;;4984840;28;20053;-87
2022/01/22 06:44:17;;;;;;;16.30;3.25;;;6.20;99.90;;;;;;4988254;28;20112;-85
2022/01/22 06:46:45;;;;;;;26.05;4.47;;;6.20;99.90;;;;;;4987879;28;20046;-85
2022/01/22 06:49:11;;;;;;;17.88;2.92;;;6.30;99.90;;;;;;4987971;28;20602;-85
2022/01/22 06:51:37;;;;;;;18.35;2.20;;;6.20;99.90;;;;;;4987732;28;20058;-85
2022/01/22 06:54:04;;;;;;;27.33;3.53;;;6.20;99.90;;;;;;4991590;28;20128;-86
2022/01/22 06:56:31;;;;;;;16.40;2.53;;;6.30;99.90;;;;;;4989486;28;20515;-86
2022/01/22 06:58:58;;;;;;;18.70;2.95;;;6.20;99.90;;;;;;4988483;28;20117;-86
2022/01/22 07:01:24;;;;;;;15.95;2.58;;;6.20;99.90;;;;;;4992507;28;20099;-85
2022/01/22 07:03:50;;;;;;;14.38;2.65;;;6.20;99.90;;;;;;5003810;28;20606;-85
2022/01/22 07:06:16;;;;;;;9.57;1.90;;;6.20;99.90;;;;;;5004803;28;20073;-86
2022/01/22 07:08:41;;;;;;;12.43;2.55;;;6.20;99.90;;;;;;5005028;28;20064;-88
2022/01/22 07:11:07;;;;;;;14.50;2.72;;;6.20;99.90;;;;;;5003800;28;20058;-88
2022/01/22 07:13:33;;;;;;;10.65;2.50;;;6.10;99.90;;;;;;5005312;28;20084;-88
2022/01/22 07:15:59;;;;;;;13.80;2.33;;;6.10;99.90;;;;;;5008053;28;20056;-86
2022/01/22 07:18:25;;;;;;;12.57;2.03;;;6.10;99.90;;;;;;5008450;28;20054;-86
2022/01/22 07:20:52;;;;;;;8.00;1.88;;;6.10;99.90;;;;;;5009366;28;20049;-86
2022/01/22 07:23:54;;;;;;;13.23;2.65;;;6.10;99.90;;;;;;5012987;28;20062;-86
2022/01/22 07:26:07;;;;;;;11.73;2.40;;;6.20;99.90;;;;;;5008532;28;20339;-85
2022/01/22 07:28:33;;;;;;;12.77;2.60;;;6.20;99.90;;;;;;5006094;28;20053;-86
2022/01/22 07:31:03;;;;;;;14.52;2.15;;;6.20;99.90;;;;;;5014256;28;20412;-88
2022/01/22 07:33:29;;;;;;;21.90;2.70;;;6.10;99.90;;;;;;4990957;28;20042;-88
2022/01/22 07:35:55;;;;;;;13.50;2.55;;;6.20;99.90;;;;;;5004342;28;20045;-88
2022/01/22 07:38:21;;;;;;;12.18;2.50;;;6.20;99.90;;;;;;5005442;28;20101;-88
2022/01/22 07:40:47;;;;;;;13.10;2.60;;;6.10;99.90;;;;;;4999966;28;20084;-89
2022/01/22 07:43:14;;;;;;;15.35;2.95;;;6.20;99.90;;;;;;4990922;28;20606;-88
2022/01/22 07:45:40;;;;;;;14.73;3.40;;;6.20;99.90;;;;;;5007759;28;20049;-89
2022/01/22 07:48:06;;;;;;;19.27;3.63;;;6.20;99.90;;;;;;5009249;28;20053;-88
2022/01/22 07:50:32;;;;;;;20.40;4.32;;;6.10;99.90;;;;;;5006961;28;20141;-88
2022/01/22 07:52:58;;;;;;;20.83;3.92;;;6.10;99.90;;;;;;5009116;28;20077;-88
2022/01/22 07:55:24;;;;;;;19.92;3.72;;;6.10;99.90;;;;;;5006511;28;20520;-88
2022/01/22 07:57:53;;;;;;;16.00;2.80;;;6.10;99.90;;;;;;5004452;28;20144;-88
2022/01/22 08:00:20;;;;;;;14.50;2.42;;;6.10;99.90;;;;;;5004451;28;20404;-88
2022/01/22 08:02:46;;;;;;;6.28;1.88;;;6.10;99.90;;;;;;5009001;28;20522;-88
2022/01/22 08:05:12;;;;;;;12.10;2.38;;;6.10;99.90;;;;;;5010689;28;20053;-88
2022/01/22 08:07:39;;;;;;;10.20;2.10;;;6.10;99.90;;;;;;5009210;28;20085;-88
2022/01/22 08:10:10;;;;;;;8.95;1.55;;;6.10;99.90;;;;;;5016020;28;20060;-88
2022/01/22 08:12:37;;;;;;;14.85;4.95;;;6.10;99.90;;;;;;5011550;28;20058;-88
2022/01/22 08:15:07;;;;;;;9.70;2.90;;;6.10;99.90;;;;;;5016535;28;20137;-88
2022/01/22 08:17:33;;;;;;;10.02;2.10;;;6.10;99.90;;;;;;5009981;28;20049;-86
2022/01/22 08:20:12;;;;;;;7.30;1.73;;;6.10;99.90;;;;;;5011382;28;20412;-88
2022/01/22 08:22:38;;;;;;;9.60;2.58;;;6.10;99.90;;;;;;5015796;28;20052;-87
2022/01/22 08:25:04;;;;;;;7.53;1.85;;;6.10;99.90;;;;;;5013768;28;20057;-87
2022/01/22 08:29:56;;;;;;;7.47;2.13;;;6.10;99.90;;;;;;5015069;28;20058;-87
2022/01/22 08:38:07;;;;;;;9.45;2.38;;;6.10;99.90;;;;;;4974912;28;20062;-87
2022/01/22 08:40:33;;;;;;;16.17;3.22;;;6.10;99.90;;;;;;5005977;28;20534;-87
2022/01/22 08:42:58;;;;;;;6.75;1.90;;;6.10;99.90;;;;;;5007271;28;20508;-88
2022/01/22 08:45:24;;;;;;;12.27;3.33;;;6.20;99.90;;;;;;5007134;28;20096;-87
2022/01/22 08:47:49;;;;;;;10.93;2.53;;;6.20;99.90;;;;;;5004510;28;20037;-87
2022/01/22 08:50:15;;;;;;;11.90;2.20;;;6.20;99.90;;;;;;5006105;28;20468;-87
2022/01/22 08:52:41;;;;;;;10.70;2.30;;;6.20;99.90;;;;;;4988329;28;20057;-87
2022/01/22 08:55:07;;;;;;;9.68;1.88;;;6.10;99.90;;;;;;5004777;28;20042;-87
2022/01/22 08:57:37;;;;;;;7.03;1.48;;;6.20;99.90;;;;;;5007442;28;20064;-86
2022/01/22 09:00:04;;;;;;;8.73;2.15;;;6.10;99.90;;;;;;5004712;28;20077;-86
2022/01/22 09:02:30;;;;;;;9.05;1.75;;;6.30;99.90;;;;;;5004438;28;20041;-86
2022/01/22 09:04:56;;;;;;;10.40;2.17;;;6.30;99.90;;;;;;5007812;28;20480;-87
2022/01/22 09:07:22;;;;;;;10.52;2.03;;;6.30;99.90;;;;;;5009272;28;20050;-86
2022/01/22 09:09:48;;;;;;;15.00;3.25;;;6.40;99.90;;;;;;5010286;28;20111;-87
2022/01/22 09:12:17;;;;;;;13.85;2.30;;;6.40;99.90;;;;;;5002005;28;20053;-88
2022/01/22 09:14:43;;;;;;;13.55;2.13;;;6.40;99.90;;;;;;5010453;28;20056;-87
2022/01/22 09:17:13;;;;;;;16.27;1.83;;;6.40;99.90;;;;;;5009444;28;20458;-87
2022/01/22 09:19:39;;;;;;;10.52;2.20;;;6.50;99.90;;;;;;5008743;28;20132;-87
2022/01/22 09:22:07;;;;;;;15.30;2.83;;;6.50;99.90;;;;;;5006123;28;20054;-87
2022/01/22 09:24:33;;;;;;;19.90;1.80;;;6.60;99.90;;;;;;5008389;28;20065;-86
2022/01/22 09:27:03;;;;;;;13.38;2.00;;;6.60;99.90;;;;;;5006170;28;20050;-86
2022/01/22 09:29:29;;;;;;;12.70;1.98;;;6.60;99.90;;;;;;5008362;28;20492;-86
2022/01/22 09:31:54;;;;;;;14.70;2.47;;;6.50;99.90;;;;;;4991740;28;20057;-87
2022/01/22 09:34:20;;;;;;;14.85;2.38;;;6.60;99.90;;;;;;5009360;28;20120;-87
2022/01/22 09:36:49;;;;;;;16.42;2.50;;;6.50;99.90;;;;;;5009485;28;20133;-87
2022/01/22 09:39:15;;;;;;;16.38;1.88;;;6.50;99.90;;;;;;5009834;28;20045;-87
2022/01/22 09:41:44;;;;;;;10.45;1.98;;;6.50;99.90;;;;;;5013182;28;20511;-87
2022/01/22 09:44:10;;;;;;;10.60;2.08;;;6.50;99.90;;;;;;5013575;28;20108;-86
2022/01/22 09:46:36;;;;;;;30.58;11.15;;;6.50;99.90;;;;;;5015409;28;20054;-87
2022/01/22 09:49:05;;;;;;;15.10;3.40;;;6.50;99.90;;;;;;5011363;28;20141;-86
2022/01/22 09:51:30;;;;;;;18.25;2.45;;;6.50;99.90;;;;;;5003681;28;20113;-87
2022/01/22 09:53:56;;;;;;;15.27;2.78;;;6.50;99.90;;;;;;4988823;28;20125;-87
2022/01/22 09:56:24;;;;;;;11.70;2.17;;;6.60;99.90;;;;;;5006779;28;20591;-88
2022/01/22 09:58:52;;;;;;;13.90;2.50;;;6.60;99.90;;;;;;4988686;28;20058;-88
2022/01/22 10:01:27;;;;;;;16.45;2.22;;;6.70;99.90;;;;;;4989629;28;20058;-87
2022/01/22 10:04:04;;;;;;;17.25;2.58;;;6.70;99.90;;;;;;4993822;28;20089;-88
2022/01/22 10:06:33;;;;;;;13.02;2.50;;;6.70;99.90;;;;;;4989672;28;20054;-88
2022/01/22 10:09:06;;;;;;;21.52;3.03;;;6.70;99.90;;;;;;4995468;28;20333;-87
2022/01/22 10:11:33;;;;;;;12.55;2.70;;;6.70;99.90;;;;;;4995525;28;20082;-88
2022/01/22 10:13:59;;;;;;;13.75;3.17;;;6.80;99.90;;;;;;4992346;28;20047;-87
2022/01/22 10:16:33;;;;;;;13.20;1.90;;;6.80;99.90;;;;;;5001777;28;20053;-88
2022/01/22 10:19:22;;;;;;;13.00;2.45;;;6.80;99.90;;;;;;4989381;28;20045;-88
2022/01/22 10:21:59;;;;;;;12.63;3.05;;;6.90;99.90;;;;;;5018005;28;20893;-88
2022/01/22 10:24:42;;;;;;;14.82;4.88;;;7.00;99.90;;;;;;5009132;28;20069;-87
2022/01/22 10:27:44;;;;;;;12.30;2.63;;;7.10;99.90;;;;;;5011216;28;20058;-87
2022/01/22 10:30:19;;;;;;;10.63;2.47;;;7.00;99.90;;;;;;5008472;28;20114;-88
2022/01/22 10:32:54;;;;;;;17.08;2.80;;;7.10;99.90;;;;;;5009614;28;20060;-86
2022/01/22 10:35:27;;;;;;;20.77;3.35;;;7.00;99.90;;;;;;4993303;28;20516;-87
2022/01/22 10:37:59;;;;;;;10.70;2.70;;;7.00;99.90;;;;;;5010180;28;20092;-87
2022/01/22 10:40:30;;;;;;;9.52;2.70;;;7.00;99.90;;;;;;5008663;28;20042;-86
2022/01/22 10:43:12;;;;;;;17.45;2.70;;;7.00;99.90;;;;;;5014442;28;20045;-86
2022/01/22 10:45:42;;;;;;;9.98;2.60;;;7.10;99.90;;;;;;5013624;28;20057;-86
2022/01/22 10:48:20;;;;;;;8.40;2.55;;;7.00;99.90;;;;;;5015114;28;20152;-86
2022/01/22 10:50:58;;;;;;;14.38;3.17;;;7.00;99.90;;;;;;5008418;28;20065;-87
2022/01/22 10:53:55;;;;;;;15.32;2.65;;;7.10;99.90;;;;;;5009471;28;20042;-87
2022/01/22 10:56:22;;;;;;;14.05;2.42;;;7.00;99.90;;;;;;5009570;28;20061;-87
2022/01/22 10:59:00;;;;;;;8.85;2.10;;;7.00;99.90;;;;;;5009569;28;20512;-87
2022/01/22 11:01:31;;;;;;;10.77;2.40;;;7.00;99.90;;;;;;5009376;28;20200;-87
2022/01/22 11:04:07;;;;;;;15.25;2.40;;;6.90;99.90;;;;;;4993401;28;20060;-85
2022/01/22 11:06:33;;;;;;;;;;;6.90;99.90;;;;;;5015473;28;20049;-87
2022/01/22 11:09:02;;;;;;;13.47;1.87;;;7.40;99.90;;;;;;5015448;28;19980;-86
2022/01/22 11:11:30;;;;;;;12.20;2.92;;;6.80;99.90;;;;;;5013397;28;20057;-87
2022/01/22 11:13:56;;;;;;;13.63;2.55;;;6.90;99.90;;;;;;5012960;28;20057;-87
2022/01/22 11:16:22;;;;;;;14.88;3.83;;;6.80;99.90;;;;;;5009606;28;20089;-87
2022/01/22 11:18:50;;;;;;;14.88;3.50;;;6.80;99.90;;;;;;5009840;28;20046;-88
2022/01/22 11:21:17;;;;;;;20.20;3.08;;;6.80;99.90;;;;;;5005352;28;20046;-87
2022/01/22 11:23:46;;;;;;;13.68;3.78;;;6.80;99.90;;;;;;5007281;28;20054;-87
2022/01/22 11:26:13;;;;;;;8.45;2.80;;;6.80;99.90;;;;;;5008708;28;20420;-86
2022/01/22 11:28:40;;;;;;;22.95;3.47;;;6.90;99.90;;;;;;5006500;28;20049;-86
2022/01/22 11:31:08;;;;;;;19.38;3.50;;;6.90;99.90;;;;;;5006446;28;20049;-87
2022/01/22 11:33:38;;;;;;;14.43;4.13;;;6.90;99.90;;;;;;5005655;28;20405;-87
2022/01/22 11:36:31;;;;;;;17.80;4.47;;;7.20;99.90;;;;;;5004675;28;20469;-87
2022/01/22 11:38:59;;;;;;;15.10;3.63;;;6.90;99.90;;;;;;4996530;28;20531;-86
2022/01/22 11:41:25;;;;;;;17.83;4.70;;;7.00;99.90;;;;;;4988648;28;20045;-87
2022/01/22 11:46:40;;;;;;;15.30;4.07;;;6.90;99.90;;;;;;5005311;28;20054;-86
2022/01/22 11:49:16;;;;;;;27.92;6.28;;;6.90;99.90;;;;;;5006031;28;20197;-85
2022/01/22 11:51:44;;;;;;;22.85;4.20;;;6.90;99.90;;;;;;4987545;28;20046;-86
2022/01/22 11:54:10;;;;;;;18.40;5.13;;;6.90;99.90;;;;;;5006224;28;20092;-86
2022/01/22 11:56:45;;;;;;;22.45;5.13;;;7.00;99.90;;;;;;5002633;28;20049;-86
2022/01/22 11:59:20;;;;;;;24.08;5.43;;;6.90;99.90;;;;;;5002332;28;20420;-86
2022/01/22 12:01:52;;;;;;;23.88;4.35;;;7.00;99.90;;;;;;5002767;28;20088;-86
2022/01/22 12:04:20;;;;;;;22.42;5.70;;;6.90;99.90;;;;;;5004823;28;20046;-86
2022/01/22 12:07:01;;;;;;;29.33;5.50;;;8.20;99.90;;;;;;4988266;28;20056;-86
2022/01/22 12:15:20;;;;;;;22.23;5.63;;;6.90;99.90;;;;;;5004386;28;20065;-86
2022/01/22 12:17:56;;;;;;;21.08;4.97;;;6.90;99.90;;;;;;5003178;28;20064;-86
2022/01/22 12:23:08;;;;;;;19.35;5.82;;;6.90;99.90;;;;;;5004466;28;20073;-86
2022/01/22 12:25:33;;;;;;;18.55;5.13;;;6.90;99.90;;;;;;5004754;28;20077;-86
2022/01/22 12:27:59;;;;;;;25.05;5.88;;;6.90;99.90;;;;;;5002645;28;20081;-86
2022/01/22 12:30:44;;;;;;;28.27;6.78;;;7.00;99.90;;;;;;5003975;28;20188;-86
2022/01/22 12:33:30;;;;;;;26.50;5.93;;;7.00;99.90;;;;;;5005224;28;20468;-87
2022/01/22 12:36:00;;;;;;;27.75;6.82;;;7.00;99.90;;;;;;5005180;28;20057;-87
2022/01/22 12:38:36;;;;;;;32.25;6.97;;;7.00;99.90;;;;;;5003489;28;20494;-86
2022/01/22 12:44:35;;;;;;;17.58;6.03;;;7.00;99.90;;;;;;4991427;28;20485;-85
2022/01/22 12:47:05;;;;;;;13.35;5.93;;;6.90;99.90;;;;;;5003942;28;20045;-86
2022/01/22 12:49:37;;;;;;;26.42;6.40;;;6.90;99.90;;;;;;5005166;28;20128;-86
2022/01/22 12:52:05;;;;;;;18.63;6.30;;;7.90;99.90;;;;;;5004142;28;20046;-86
2022/01/22 12:54:37;;;;;;;24.92;6.30;;;6.80;99.90;;;;;;5002383;28;20064;-87
2022/01/22 12:57:08;;;;;;;19.42;6.63;;;6.80;99.90;;;;;;5003505;28;20107;-87
2022/01/22 13:00:00;;;;;;;27.35;6.53;;;6.70;99.90;;;;;;5003037;28;20066;-87
2022/01/22 13:02:37;;;;;;;23.98;6.25;;;6.70;99.90;;;;;;5003244;28;20054;-86
2022/01/22 13:05:04;;;;;;;19.05;5.90;;;6.60;99.90;;;;;;5003455;28;20077;-87
2022/01/22 13:07:45;;;;;;;16.30;5.53;;;6.60;99.90;;;;;;5003760;28;20072;-86
2022/01/22 13:10:11;;;;;;;26.45;6.05;;;6.60;99.90;;;;;;5003313;28;20520;-86
2022/01/22 13:12:42;;;;;;;26.52;8.38;;;6.70;99.90;;;;;;5001569;28;20054;-85
2022/01/22 13:15:10;;;;;;;26.45;6.30;;;6.70;99.90;;;;;;5004731;28;20049;-86
2022/01/22 13:17:36;;;;;;;20.00;6.05;;;6.70;99.90;;;;;;5006132;28;20057;-85
2022/01/22 13:20:04;;;;;;;23.08;5.72;;;6.80;99.90;;;;;;5008027;28;20046;-86
2022/01/22 13:22:35;;;;;;;16.80;5.57;;;6.90;99.90;;;;;;5008706;28;20115;-86
2022/01/22 13:25:12;;;;;;;23.77;5.20;;;6.80;99.90;;;;;;4992488;28;20045;-85
2022/01/22 13:27:40;;;;;;;21.70;5.43;;;6.90;99.90;;;;;;5008156;28;20050;-86
2022/01/22 13:30:08;;;;;;;23.13;5.57;;;7.00;99.90;;;;;;5007566;28;20129;-86
2022/01/22 13:49:03;;;;;;;18.98;4.65;;;6.80;99.90;;;;;;4989289;28;20476;-86
2022/01/22 13:51:30;;;;;;;8.63;3.03;;;6.80;99.90;;;;;;4971108;28;20058;-86
2022/01/22 13:53:57;;;;;;;14.75;3.33;;;6.70;99.90;;;;;;4987751;28;20054;-86
2022/01/22 13:56:48;;;;;;;14.95;3.03;;;6.70;99.90;;;;;;4989287;28;20082;-86
2022/01/22 13:59:22;;;;;;;15.32;3.10;;;6.60;99.90;;;;;;4986528;28;20066;-86
2022/01/22 14:02:06;;;;;;;7.07;1.67;;;6.60;99.90;;;;;;4986934;28;20058;-86
2022/01/22 14:04:41;;;;;;;11.18;2.28;;;6.50;99.90;;;;;;4987279;28;20416;-87
2022/01/22 14:07:18;;;;;;;8.38;1.95;;;6.40;99.90;;;;;;4989116;28;20054;-86
2022/01/22 14:10:06;;;;;;;9.65;1.88;;;6.50;99.90;;;;;;4987026;28;20139;-86
2022/01/22 14:12:59;;;;;;;9.07;2.20;;;6.50;99.90;;;;;;4987024;28;20046;-86
2022/01/22 14:15:29;;;;;;;11.75;2.17;;;6.40;99.90;;;;;;4987990;28;20056;-86
2022/01/22 14:18:13;;;;;;;21.60;3.35;;;6.50;99.90;;;;;;4988163;28;20061;-86
2022/01/22 14:20:43;;;;;;;15.25;2.85;;;6.50;99.90;;;;;;4986903;28;20137;-86
2022/01/22 14:23:28;;;;;;;13.65;2.22;;;6.50;99.90;;;;;;4986749;28;20062;-86
2022/01/22 14:26:11;;;;;;;12.50;2.73;;;6.50;99.90;;;;;;4987877;28;20112;-86
2022/01/22 14:28:38;;;;;;;8.68;2.70;;;6.50;99.90;;;;;;4988649;28;20054;-87
2022/01/22 14:31:30;;;;;;;12.10;3.10;;;6.50;99.90;;;;;;4986429;28;20116;-86
2022/01/22 14:33:59;;;;;;;13.35;3.33;;;6.50;99.90;;;;;;4987074;28;20054;-86
2022/01/22 14:36:36;;;;;;;17.85;3.78;;;6.50;99.90;;;;;;4986032;28;20042;-85
2022/01/22 14:39:30;;;;;;;18.60;3.38;;;6.40;99.90;;;;;;4984310;28;20089;-86
2022/01/22 14:44:50;;;;;;;10.68;2.72;;;6.30;99.90;;;;;;4984855;28;20070;-87
2022/01/22 14:47:27;;;;;;;16.38;2.97;;;6.30;99.90;;;;;;4985358;28;20050;-86
2022/01/22 14:49:54;;;;;;;9.35;2.60;;;6.30;99.90;;;;;;4985306;28;20133;-86
2022/01/22 14:52:22;;;;;;;7.70;2.25;;;6.30;99.90;;;;;;4984556;28;20503;-85
2022/01/22 14:54:49;;;;;;;16.00;3.33;;;6.30;99.90;;;;;;4985678;28;20464;-85
2022/01/22 14:57:21;;;;;;;14.25;2.90;;;6.30;99.90;;;;;;4984097;28;20090;-86
2022/01/22 14:59:47;;;;;;;16.80;2.97;;;6.30;99.90;;;;;;4983880;28;20129;-86
2022/01/22 15:02:15;;;;;;;14.20;2.55;;;6.30;99.90;;;;;;4985974;28;20101;-86
2022/01/22 15:04:42;;;;;;;14.80;3.40;;;6.20;99.90;;;;;;4984524;28;20050;-86
2022/01/22 15:07:12;;;;;;;13.18;2.25;;;6.20;99.90;;;;;;4968625;28;20097;-86
2022/01/22 15:09:43;;;;;;;11.65;2.20;;;6.20;99.90;;;;;;4984263;28;20054;-86